sensor_id;sensor_type;location;lat;lon;timestamp;pressure;altitude;pressure_sealevel;temperature;humidity
22743;BME280;11538;48.884;8.696;2023-04-15T00:01:05;97801.59;;;6.24;74.65
22743;BME280;11538;48.884;8.696;2023-04-15T00:03:32;97797.28;;;6.23;74.70
22743;BME280;11538;48.884;8.696;2023-04-15T00:06:00;97794.94;;;6.36;74.04
22743;BME280;11538;48.884;8.696;2023-04-15T00:08:28;97791.53;;;6.30;74.42
22743;BME280;11538;48.884;8.696;2023-04-15T00:10:55;97784.56;;;6.29;74.73
22743;BME280;11538;48.884;8.696;2023-04-15T00:13:22;97792.41;;;6.25;75.09
22743;BME280;11538;48.884;8.696;2023-04-15T00:15:49;97788.03;;;6.29;74.73
22743;BME280;11538;48.884;8.696;2023-04-15T00:18:17;97790.72;;;6.29;74.72
22743;BME280;11538;48.884;8.696;2023-04-15T00:20:43;97785.94;;;6.26;74.82
22743;BME280;11538;48.884;8.696;2023-04-15T00:23:10;97783.41;;;6.16;75.22
22743;BME280;11538;48.884;8.696;2023-04-15T00:25:37;97786.44;;;6.28;75.13
22743;BME280;11538;48.884;8.696;2023-04-15T00:28:04;97788.44;;;6.37;74.56
22743;BME280;11538;48.884;8.696;2023-04-15T00:30:31;97786.84;;;6.36;75.24
22743;BME280;11538;48.884;8.696;2023-04-15T00:32:58;97784.34;;;6.25;75.66
22743;BME280;11538;48.884;8.696;2023-04-15T00:35:25;97778.03;;;6.16;75.60
22743;BME280;11538;48.884;8.696;2023-04-15T00:37:52;97782.00;;;6.05;76.26
22743;BME280;11538;48.884;8.696;2023-04-15T00:40:20;97782.50;;;5.88;76.73
22743;BME280;11538;48.884;8.696;2023-04-15T00:42:51;97777.13;;;6.07;76.67
22743;BME280;11538;48.884;8.696;2023-04-15T00:45:18;97778.84;;;5.97;76.74
22743;BME280;11538;48.884;8.696;2023-04-15T00:47:45;97772.97;;;5.95;77.25
22743;BME280;11538;48.884;8.696;2023-04-15T00:50:12;97776.81;;;5.89;77.45
22743;BME280;11538;48.884;8.696;2023-04-15T00:52:39;97779.59;;;5.84;77.73
22743;BME280;11538;48.884;8.696;2023-04-15T00:55:07;97779.28;;;5.85;77.85
22743;BME280;11538;48.884;8.696;2023-04-15T00:57:38;97774.41;;;5.88;78.00
22743;BME280;11538;48.884;8.696;2023-04-15T01:00:06;97776.81;;;5.89;77.82
22743;BME280;11538;48.884;8.696;2023-04-15T01:02:35;97775.38;;;5.78;78.35
22743;BME280;11538;48.884;8.696;2023-04-15T01:05:03;97775.09;;;5.79;78.51
22743;BME280;11538;48.884;8.696;2023-04-15T01:07:31;97778.50;;;5.85;78.53
22743;BME280;11538;48.884;8.696;2023-04-15T01:09:58;97781.06;;;5.76;78.74
22743;BME280;11538;48.884;8.696;2023-04-15T01:12:27;97785.94;;;5.55;80.07
22743;BME280;11538;48.884;8.696;2023-04-15T01:14:55;97771.06;;;5.44;81.00
22743;BME280;11538;48.884;8.696;2023-04-15T01:17:24;97771.75;;;5.49;80.60
22743;BME280;11538;48.884;8.696;2023-04-15T01:19:51;97772.66;;;5.45;81.26
22743;BME280;11538;48.884;8.696;2023-04-15T01:22:18;97772.22;;;5.37;81.72
22743;BME280;11538;48.884;8.696;2023-04-15T01:25:16;97771.81;;;5.25;82.43
22743;BME280;11538;48.884;8.696;2023-04-15T01:27:40;97775.31;;;5.25;82.76
22743;BME280;11538;48.884;8.696;2023-04-15T01:30:08;97769.81;;;5.36;82.35
22743;BME280;11538;48.884;8.696;2023-04-15T01:32:36;97773.81;;;5.38;82.30
22743;BME280;11538;48.884;8.696;2023-04-15T01:35:04;97772.69;;;5.20;83.24
22743;BME280;11538;48.884;8.696;2023-04-15T01:37:31;97771.47;;;5.32;83.03
22743;BME280;11538;48.884;8.696;2023-04-15T01:39:58;97774.00;;;5.42;82.67
22743;BME280;11538;48.884;8.696;2023-04-15T01:42:26;97768.34;;;5.63;81.61
22743;BME280;11538;48.884;8.696;2023-04-15T01:44:53;97772.13;;;5.43;82.19
22743;BME280;11538;48.884;8.696;2023-04-15T01:47:20;97771.63;;;5.40;82.45
22743;BME280;11538;48.884;8.696;2023-04-15T01:49:48;97762.91;;;5.49;82.02
22743;BME280;11538;48.884;8.696;2023-04-15T01:52:15;97764.63;;;5.59;81.42
22743;BME280;11538;48.884;8.696;2023-04-15T01:54:41;97768.06;;;5.64;81.03
22743;BME280;11538;48.884;8.696;2023-04-15T01:57:09;97764.34;;;5.60;81.35
22743;BME280;11538;48.884;8.696;2023-04-15T01:59:35;97768.34;;;5.63;81.37
22743;BME280;11538;48.884;8.696;2023-04-15T02:02:03;97765.97;;;5.61;81.20
22743;BME280;11538;48.884;8.696;2023-04-15T02:04:30;97762.09;;;5.67;80.90
22743;BME280;11538;48.884;8.696;2023-04-15T02:06:57;97767.03;;;5.60;81.18
22743;BME280;11538;48.884;8.696;2023-04-15T02:09:24;97763.53;;;5.60;81.07
22743;BME280;11538;48.884;8.696;2023-04-15T02:11:51;97766.81;;;5.56;81.63
22743;BME280;11538;48.884;8.696;2023-04-15T02:14:20;97759.84;;;5.55;81.65
22743;BME280;11538;48.884;8.696;2023-04-15T02:16:47;97763.84;;;5.58;81.55
22743;BME280;11538;48.884;8.696;2023-04-15T02:19:14;97759.31;;;5.53;81.86
22743;BME280;11538;48.884;8.696;2023-04-15T02:21:41;97755.03;;;5.52;81.98
22743;BME280;11538;48.884;8.696;2023-04-15T02:24:07;97758.38;;;5.44;82.02
22743;BME280;11538;48.884;8.696;2023-04-15T02:26:34;97760.81;;;5.46;82.28
22743;BME280;11538;48.884;8.696;2023-04-15T02:29:02;97756.22;;;5.46;82.28
22743;BME280;11538;48.884;8.696;2023-04-15T02:31:29;97760.00;;;5.45;82.38
22743;BME280;11538;48.884;8.696;2023-04-15T02:33:59;97757.59;;;5.44;82.74
22743;BME280;11538;48.884;8.696;2023-04-15T02:36:30;97755.00;;;5.38;82.35
22743;BME280;11538;48.884;8.696;2023-04-15T02:38:57;97762.63;;;5.31;83.41
22743;BME280;11538;48.884;8.696;2023-04-15T02:41:24;97759.28;;;5.39;82.72
22743;BME280;11538;48.884;8.696;2023-04-15T02:43:53;97759.47;;;5.43;82.63
22743;BME280;11538;48.884;8.696;2023-04-15T02:46:21;97760.94;;;5.35;82.85
22743;BME280;11538;48.884;8.696;2023-04-15T02:48:49;97767.75;;;5.27;83.48
22743;BME280;11538;48.884;8.696;2023-04-15T02:51:19;97766.50;;;5.20;83.95
22743;BME280;11538;48.884;8.696;2023-04-15T02:53:48;97765.22;;;5.17;84.13
22743;BME280;11538;48.884;8.696;2023-04-15T02:56:16;97758.06;;;5.07;85.02
22743;BME280;11538;48.884;8.696;2023-04-15T02:58:44;97754.16;;;5.19;84.36
22743;BME280;11538;48.884;8.696;2023-04-15T03:01:12;97762.44;;;5.22;84.04
22743;BME280;11538;48.884;8.696;2023-04-15T03:03:40;97762.38;;;5.27;83.86
22743;BME280;11538;48.884;8.696;2023-04-15T03:06:07;97759.13;;;5.31;83.54
22743;BME280;11538;48.884;8.696;2023-04-15T03:08:34;97765.41;;;5.21;84.11
22743;BME280;11538;48.884;8.696;2023-04-15T03:11:02;97764.19;;;5.13;84.34
22743;BME280;11538;48.884;8.696;2023-04-15T03:13:29;97761.50;;;5.13;84.65
22743;BME280;11538;48.884;8.696;2023-04-15T03:15:56;97759.66;;;5.08;84.99
22743;BME280;11538;48.884;8.696;2023-04-15T03:18:23;97759.59;;;5.13;84.46
22743;BME280;11538;48.884;8.696;2023-04-15T03:20:50;97760.69;;;4.93;85.34
22743;BME280;11538;48.884;8.696;2023-04-15T03:23:17;97761.81;;;4.87;85.99
22743;BME280;11538;48.884;8.696;2023-04-15T03:25:44;97753.84;;;5.01;85.47
22743;BME280;11538;48.884;8.696;2023-04-15T03:28:11;97756.84;;;5.00;85.37
22743;BME280;11538;48.884;8.696;2023-04-15T03:30:38;97762.47;;;4.98;85.15
22743;BME280;11538;48.884;8.696;2023-04-15T03:33:05;97757.69;;;4.95;85.47
22743;BME280;11538;48.884;8.696;2023-04-15T03:35:33;97759.28;;;4.96;85.70
22743;BME280;11538;48.884;8.696;2023-04-15T03:38:01;97753.34;;;4.99;85.53
22743;BME280;11538;48.884;8.696;2023-04-15T03:40:29;97753.75;;;4.87;85.78
22743;BME280;11538;48.884;8.696;2023-04-15T03:42:56;97759.78;;;4.79;86.26
22743;BME280;11538;48.884;8.696;2023-04-15T03:45:23;97758.50;;;4.71;86.77
22743;BME280;11538;48.884;8.696;2023-04-15T03:47:51;97767.78;;;4.60;87.62
22743;BME280;11538;48.884;8.696;2023-04-15T03:50:18;97756.22;;;4.59;88.10
22743;BME280;11538;48.884;8.696;2023-04-15T03:52:45;97753.59;;;4.78;87.26
22743;BME280;11538;48.884;8.696;2023-04-15T03:55:12;97752.44;;;4.85;86.58
22743;BME280;11538;48.884;8.696;2023-04-15T03:57:38;97754.56;;;4.88;86.46
22743;BME280;11538;48.884;8.696;2023-04-15T04:00:07;97748.09;;;4.89;86.13
22743;BME280;11538;48.884;8.696;2023-04-15T04:02:37;97753.41;;;4.94;86.07
22743;BME280;11538;48.884;8.696;2023-04-15T04:05:05;97758.91;;;4.83;85.94
22743;BME280;11538;48.884;8.696;2023-04-15T04:07:32;97758.81;;;4.70;86.96
22743;BME280;11538;48.884;8.696;2023-04-15T04:09:59;97761.75;;;4.68;87.09
22743;BME280;11538;48.884;8.696;2023-04-15T04:12:25;97757.59;;;4.57;87.77
22743;BME280;11538;48.884;8.696;2023-04-15T04:14:52;97765.72;;;4.51;87.80
22743;BME280;11538;48.884;8.696;2023-04-15T04:17:19;97767.16;;;4.38;89.01
22743;BME280;11538;48.884;8.696;2023-04-15T04:19:46;97760.72;;;4.39;89.17
22743;BME280;11538;48.884;8.696;2023-04-15T04:22:13;97763.19;;;4.36;89.40
22743;BME280;11538;48.884;8.696;2023-04-15T04:24:39;97765.81;;;4.41;89.36
22743;BME280;11538;48.884;8.696;2023-04-15T04:27:06;97773.06;;;4.41;89.00
22743;BME280;11538;48.884;8.696;2023-04-15T04:29:33;97766.09;;;4.39;89.05
22743;BME280;11538;48.884;8.696;2023-04-15T04:32:00;97767.47;;;4.37;89.06
22743;BME280;11538;48.884;8.696;2023-04-15T04:34:27;97769.13;;;4.33;89.15
22743;BME280;11538;48.884;8.696;2023-04-15T04:36:53;97765.09;;;4.30;89.54
22743;BME280;11538;48.884;8.696;2023-04-15T04:39:20;97777.38;;;4.36;89.13
22743;BME280;11538;48.884;8.696;2023-04-15T04:41:47;97779.47;;;4.15;90.24
22743;BME280;11538;48.884;8.696;2023-04-15T04:44:14;97780.22;;;4.21;90.55
22743;BME280;11538;48.884;8.696;2023-04-15T04:46:41;97784.19;;;4.29;89.90
22743;BME280;11538;48.884;8.696;2023-04-15T04:49:08;97780.00;;;4.17;90.63
22743;BME280;11538;48.884;8.696;2023-04-15T04:51:35;97785.38;;;4.17;91.07
22743;BME280;11538;48.884;8.696;2023-04-15T04:54:03;97795.16;;;4.32;89.83
22743;BME280;11538;48.884;8.696;2023-04-15T04:56:29;97783.56;;;4.37;89.41
22743;BME280;11538;48.884;8.696;2023-04-15T04:58:56;97783.06;;;4.35;89.55
22743;BME280;11538;48.884;8.696;2023-04-15T05:01:23;97788.94;;;4.37;89.39
22743;BME280;11538;48.884;8.696;2023-04-15T05:03:52;97792.19;;;4.34;89.18
22743;BME280;11538;48.884;8.696;2023-04-15T05:06:19;97797.09;;;4.27;89.73
22743;BME280;11538;48.884;8.696;2023-04-15T05:08:47;97797.13;;;4.21;90.09
22743;BME280;11538;48.884;8.696;2023-04-15T05:11:13;97800.94;;;4.15;90.50
22743;BME280;11538;48.884;8.696;2023-04-15T05:13:40;97808.78;;;4.06;91.01
22743;BME280;11538;48.884;8.696;2023-04-15T05:16:07;97808.56;;;4.03;91.33
22743;BME280;11538;48.884;8.696;2023-04-15T05:18:35;97812.59;;;4.00;91.30
22743;BME280;11538;48.884;8.696;2023-04-15T05:21:02;97809.09;;;4.05;91.28
22743;BME280;11538;48.884;8.696;2023-04-15T05:23:29;97812.53;;;4.10;91.03
22743;BME280;11538;48.884;8.696;2023-04-15T05:25:56;97806.53;;;4.19;90.04
22743;BME280;11538;48.884;8.696;2023-04-15T05:28:23;97810.03;;;4.19;90.18
22743;BME280;11538;48.884;8.696;2023-04-15T05:30:50;97813.84;;;4.13;90.88
22743;BME280;11538;48.884;8.696;2023-04-15T05:33:17;97815.72;;;4.13;90.75
22743;BME280;11538;48.884;8.696;2023-04-15T05:35:44;97813.38;;;4.06;91.61
22743;BME280;11538;48.884;8.696;2023-04-15T05:38:11;97820.09;;;4.03;91.94
22743;BME280;11538;48.884;8.696;2023-04-15T05:40:38;97816.31;;;4.04;91.80
22743;BME280;11538;48.884;8.696;2023-04-15T05:43:05;97816.81;;;4.12;91.53
22743;BME280;11538;48.884;8.696;2023-04-15T05:45:32;97815.50;;;4.09;91.28
22743;BME280;11538;48.884;8.696;2023-04-15T05:47:59;97816.63;;;4.03;91.69
22743;BME280;11538;48.884;8.696;2023-04-15T05:50:26;97817.63;;;4.12;91.60
22743;BME280;11538;48.884;8.696;2023-04-15T05:52:54;97825.16;;;4.10;91.05
22743;BME280;11538;48.884;8.696;2023-04-15T05:55:21;97819.22;;;4.13;91.08
22743;BME280;11538;48.884;8.696;2023-04-15T05:57:48;97826.41;;;4.18;90.65
22743;BME280;11538;48.884;8.696;2023-04-15T06:00:15;97832.03;;;4.21;90.64
22743;BME280;11538;48.884;8.696;2023-04-15T06:02:42;97828.31;;;4.17;90.93
22743;BME280;11538;48.884;8.696;2023-04-15T06:05:09;97828.78;;;4.24;91.13
22743;BME280;11538;48.884;8.696;2023-04-15T06:07:37;97834.41;;;4.23;91.25
22743;BME280;11538;48.884;8.696;2023-04-15T06:10:05;97827.88;;;4.34;90.87
22743;BME280;11538;48.884;8.696;2023-04-15T06:12:33;97823.03;;;4.36;90.76
22743;BME280;11538;48.884;8.696;2023-04-15T06:15:00;97830.81;;;4.38;91.83
22743;BME280;11538;48.884;8.696;2023-04-15T06:17:27;97831.47;;;4.54;90.79
22743;BME280;11538;48.884;8.696;2023-04-15T06:19:54;97823.34;;;4.64;90.33
22743;BME280;11538;48.884;8.696;2023-04-15T06:22:22;97834.97;;;4.54;90.49
22743;BME280;11538;48.884;8.696;2023-04-15T06:24:49;97827.31;;;4.67;90.15
22743;BME280;11538;48.884;8.696;2023-04-15T06:27:17;97824.53;;;4.77;89.73
22743;BME280;11538;48.884;8.696;2023-04-15T06:29:44;97830.81;;;4.92;89.48
22743;BME280;11538;48.884;8.696;2023-04-15T06:32:11;97825.63;;;5.01;88.86
22743;BME280;11538;48.884;8.696;2023-04-15T06:34:38;97826.06;;;5.08;88.27
22743;BME280;11538;48.884;8.696;2023-04-15T06:37:05;97827.88;;;5.12;88.58
22743;BME280;11538;48.884;8.696;2023-04-15T06:39:32;97828.91;;;5.17;88.57
22743;BME280;11538;48.884;8.696;2023-04-15T06:41:59;97830.97;;;5.25;88.48
22743;BME280;11538;48.884;8.696;2023-04-15T06:44:27;97824.09;;;5.38;88.07
22743;BME280;11538;48.884;8.696;2023-04-15T06:46:54;97826.31;;;5.55;87.11
22743;BME280;11538;48.884;8.696;2023-04-15T06:49:21;97822.06;;;5.68;86.36
22743;BME280;11538;48.884;8.696;2023-04-15T06:51:48;97819.97;;;5.84;85.58
22743;BME280;11538;48.884;8.696;2023-04-15T06:54:15;97813.78;;;6.03;84.60
22743;BME280;11538;48.884;8.696;2023-04-15T06:56:42;97825.91;;;6.19;83.66
22743;BME280;11538;48.884;8.696;2023-04-15T06:59:10;97827.56;;;6.34;83.27
22743;BME280;11538;48.884;8.696;2023-04-15T07:01:36;97824.38;;;6.46;81.91
22743;BME280;11538;48.884;8.696;2023-04-15T07:04:04;97824.31;;;6.65;81.22
22743;BME280;11538;48.884;8.696;2023-04-15T07:06:30;97815.34;;;6.84;80.21
22743;BME280;11538;48.884;8.696;2023-04-15T07:08:58;97827.34;;;6.92;78.84
22743;BME280;11538;48.884;8.696;2023-04-15T07:11:26;97827.16;;;7.02;78.27
22743;BME280;11538;48.884;8.696;2023-04-15T07:13:53;97817.56;;;7.24;78.35
22743;BME280;11538;48.884;8.696;2023-04-15T07:16:19;97822.63;;;7.39;78.38
22743;BME280;11538;48.884;8.696;2023-04-15T07:18:46;97817.41;;;7.57;77.76
22743;BME280;11538;48.884;8.696;2023-04-15T07:21:13;97816.88;;;7.69;77.05
22743;BME280;11538;48.884;8.696;2023-04-15T07:23:41;97812.41;;;7.87;77.12
22743;BME280;11538;48.884;8.696;2023-04-15T07:26:08;97807.66;;;8.07;75.87
22743;BME280;11538;48.884;8.696;2023-04-15T07:28:36;97810.97;;;8.26;75.65
22743;BME280;11538;48.884;8.696;2023-04-15T07:31:03;97804.72;;;8.48;73.73
22743;BME280;11538;48.884;8.696;2023-04-15T07:33:30;97807.56;;;8.66;72.11
22743;BME280;11538;48.884;8.696;2023-04-15T07:35:57;97810.50;;;8.87;70.83
22743;BME280;11538;48.884;8.696;2023-04-15T07:38:24;97813.13;;;9.10;69.94
22743;BME280;11538;48.884;8.696;2023-04-15T07:40:51;97809.53;;;9.32;69.54
22743;BME280;11538;48.884;8.696;2023-04-15T07:43:18;97817.69;;;9.59;68.00
22743;BME280;11538;48.884;8.696;2023-04-15T07:45:47;97813.72;;;9.74;66.41
22743;BME280;11538;48.884;8.696;2023-04-15T07:48:14;97822.00;;;9.95;65.74
22743;BME280;11538;48.884;8.696;2023-04-15T07:50:41;97819.44;;;10.07;64.33
22743;BME280;11538;48.884;8.696;2023-04-15T07:53:08;97822.31;;;10.20;63.90
22743;BME280;11538;48.884;8.696;2023-04-15T07:55:35;97817.34;;;10.39;63.02
22743;BME280;11538;48.884;8.696;2023-04-15T07:58:02;97817.16;;;10.62;62.76
22743;BME280;11538;48.884;8.696;2023-04-15T08:00:29;97821.22;;;10.86;61.63
22743;BME280;11538;48.884;8.696;2023-04-15T08:02:56;97820.97;;;11.09;60.69
22743;BME280;11538;48.884;8.696;2023-04-15T08:05:24;97821.16;;;11.34;59.23
22743;BME280;11538;48.884;8.696;2023-04-15T08:07:51;97813.50;;;11.57;58.16
22743;BME280;11538;48.884;8.696;2023-04-15T08:10:18;97814.03;;;11.72;56.23
22743;BME280;11538;48.884;8.696;2023-04-15T08:12:46;97816.78;;;11.93;55.93
22743;BME280;11538;48.884;8.696;2023-04-15T08:15:15;97812.13;;;12.14;55.33
22743;BME280;11538;48.884;8.696;2023-04-15T08:17:42;97809.94;;;12.41;54.50
22743;BME280;11538;48.884;8.696;2023-04-15T08:20:09;97809.38;;;12.48;53.58
22743;BME280;11538;48.884;8.696;2023-04-15T08:22:37;97812.06;;;12.36;54.76
22743;BME280;11538;48.884;8.696;2023-04-15T08:25:04;97811.13;;;12.19;54.04
22743;BME280;11538;48.884;8.696;2023-04-15T08:27:31;97811.88;;;12.07;54.60
22743;BME280;11538;48.884;8.696;2023-04-15T08:29:58;97812.19;;;12.06;54.74
22743;BME280;11538;48.884;8.696;2023-04-15T08:32:25;97819.41;;;12.23;54.47
22743;BME280;11538;48.884;8.696;2023-04-15T08:34:52;97815.19;;;12.47;54.79
22743;BME280;11538;48.884;8.696;2023-04-15T08:37:19;97819.28;;;12.65;52.82
22743;BME280;11538;48.884;8.696;2023-04-15T08:39:46;97818.78;;;12.84;53.42
22743;BME280;11538;48.884;8.696;2023-04-15T08:42:22;97825.69;;;13.07;51.83
22743;BME280;11538;48.884;8.696;2023-04-15T08:44:54;97821.97;;;13.24;52.39
22743;BME280;11538;48.884;8.696;2023-04-15T08:47:25;97823.53;;;13.37;53.04
22743;BME280;11538;48.884;8.696;2023-04-15T08:49:56;97823.22;;;13.39;52.33
22743;BME280;11538;48.884;8.696;2023-04-15T08:52:30;97823.22;;;13.39;52.45
22743;BME280;11538;48.884;8.696;2023-04-15T08:54:59;97820.28;;;13.44;53.22
22743;BME280;11538;48.884;8.696;2023-04-15T08:57:30;97823.09;;;13.48;52.01
22743;BME280;11538;48.884;8.696;2023-04-15T08:59:57;97820.03;;;13.49;50.37
22743;BME280;11538;48.884;8.696;2023-04-15T09:02:25;97813.78;;;13.49;51.46
22743;BME280;11538;48.884;8.696;2023-04-15T09:04:53;97821.97;;;13.49;49.61
22743;BME280;11538;48.884;8.696;2023-04-15T09:07:20;97823.97;;;13.64;50.84
22743;BME280;11538;48.884;8.696;2023-04-15T09:09:47;97829.06;;;13.78;50.71
22743;BME280;11538;48.884;8.696;2023-04-15T09:12:14;97833.34;;;13.92;50.09
22743;BME280;11538;48.884;8.696;2023-04-15T09:14:45;97825.03;;;14.00;49.50
22743;BME280;11538;48.884;8.696;2023-04-15T09:17:13;97830.66;;;14.20;49.80
22743;BME280;11538;48.884;8.696;2023-04-15T09:19:44;97838.84;;;14.36;47.80
22743;BME280;11538;48.884;8.696;2023-04-15T09:22:11;97839.41;;;14.42;48.92
22743;BME280;11538;48.884;8.696;2023-04-15T09:24:39;97838.78;;;14.32;48.19
22743;BME280;11538;48.884;8.696;2023-04-15T09:27:08;97842.78;;;14.23;48.73
22743;BME280;11538;48.884;8.696;2023-04-15T09:29:35;97846.16;;;14.32;50.23
22743;BME280;11538;48.884;8.696;2023-04-15T09:32:11;97847.69;;;14.45;48.83
22743;BME280;11538;48.884;8.696;2023-04-15T09:34:38;97841.00;;;14.43;47.90
22743;BME280;11538;48.884;8.696;2023-04-15T09:37:05;97842.81;;;14.67;49.18
22743;BME280;11538;48.884;8.696;2023-04-15T09:39:51;97846.47;;;15.03;46.85
22743;BME280;11538;48.884;8.696;2023-04-15T09:42:18;97846.38;;;15.32;44.59
22743;BME280;11538;48.884;8.696;2023-04-15T09:44:52;97852.00;;;15.75;46.41
22743;BME280;11538;48.884;8.696;2023-04-15T09:47:28;97853.09;;;16.06;42.18
22743;BME280;11538;48.884;8.696;2023-04-15T09:49:57;97855.03;;;16.25;42.31
22743;BME280;11538;48.884;8.696;2023-04-15T09:52:26;97858.28;;;16.11;42.31
22743;BME280;11538;48.884;8.696;2023-04-15T09:54:57;97852.09;;;16.14;43.97
22743;BME280;11538;48.884;8.696;2023-04-15T09:57:33;97854.84;;;16.14;44.43
22743;BME280;11538;48.884;8.696;2023-04-15T10:00:00;97855.13;;;16.09;43.06
22743;BME280;11538;48.884;8.696;2023-04-15T10:02:28;97873.31;;;15.85;44.86
22743;BME280;11538;48.884;8.696;2023-04-15T10:04:56;97867.47;;;15.67;44.45
22743;BME280;11538;48.884;8.696;2023-04-15T10:07:25;97857.81;;;15.38;44.08
22743;BME280;11538;48.884;8.696;2023-04-15T10:09:52;97858.09;;;15.32;45.21
22743;BME280;11538;48.884;8.696;2023-04-15T10:12:21;97872.91;;;15.31;46.61
22743;BME280;11538;48.884;8.696;2023-04-15T10:14:55;97868.94;;;15.29;46.65
22743;BME280;11538;48.884;8.696;2023-04-15T10:17:27;97869.56;;;15.22;46.53
22743;BME280;11538;48.884;8.696;2023-04-15T10:20:01;97869.44;;;15.18;46.32
22743;BME280;11538;48.884;8.696;2023-04-15T10:22:31;97876.44;;;15.16;46.33
22743;BME280;11538;48.884;8.696;2023-04-15T10:24:59;97872.72;;;15.24;46.80
22743;BME280;11538;48.884;8.696;2023-04-15T10:27:27;97880.13;;;15.40;48.00
22743;BME280;11538;48.884;8.696;2023-04-15T10:29:56;97877.81;;;15.42;46.55
22743;BME280;11538;48.884;8.696;2023-04-15T10:32:24;97884.47;;;15.76;46.37
22743;BME280;11538;48.884;8.696;2023-04-15T10:34:53;97883.78;;;16.15;47.69
22743;BME280;11538;48.884;8.696;2023-04-15T10:37:31;97874.63;;;16.27;45.36
22743;BME280;11538;48.884;8.696;2023-04-15T10:39:59;97886.00;;;16.29;44.92
22743;BME280;11538;48.884;8.696;2023-04-15T10:42:33;97880.59;;;16.33;43.46
22743;BME280;11538;48.884;8.696;2023-04-15T10:45:01;97890.75;;;16.32;43.15
22743;BME280;11538;48.884;8.696;2023-04-15T10:47:31;97885.94;;;16.45;44.56
22743;BME280;11538;48.884;8.696;2023-04-15T10:50:00;97888.84;;;16.56;44.34
22743;BME280;11538;48.884;8.696;2023-04-15T10:52:28;97895.34;;;16.48;42.41
22743;BME280;11538;48.884;8.696;2023-04-15T10:55:11;97899.75;;;16.33;43.16
22743;BME280;11538;48.884;8.696;2023-04-15T10:57:41;97902.06;;;16.11;43.40
22743;BME280;11538;48.884;8.696;2023-04-15T11:00:14;97902.34;;;16.06;43.23
22743;BME280;11538;48.884;8.696;2023-04-15T11:05:52;97910.44;;;16.02;43.39
22743;BME280;11538;48.884;8.696;2023-04-15T11:08:52;97920.59;;;15.86;41.66
22743;BME280;11538;48.884;8.696;2023-04-15T11:11:19;97920.16;;;15.84;42.14
22743;BME280;11538;48.884;8.696;2023-04-15T11:13:49;97921.16;;;15.91;42.62
22743;BME280;11538;48.884;8.696;2023-04-15T11:16:17;97923.72;;;16.20;42.48
22743;BME280;11538;48.884;8.696;2023-04-15T11:18:54;97925.41;;;16.44;41.91
22743;BME280;11538;48.884;8.696;2023-04-15T11:21:24;97924.94;;;16.81;41.56
22743;BME280;11538;48.884;8.696;2023-04-15T11:23:52;97933.38;;;16.92;41.87
22743;BME280;11538;48.884;8.696;2023-04-15T11:26:24;97924.72;;;16.90;41.67
22743;BME280;11538;48.884;8.696;2023-04-15T11:28:52;97928.03;;;17.00;41.90
22743;BME280;11538;48.884;8.696;2023-04-15T11:31:20;97932.75;;;17.22;42.10
22743;BME280;11538;48.884;8.696;2023-04-15T11:33:59;97931.41;;;17.36;42.35
22743;BME280;11538;48.884;8.696;2023-04-15T11:36:29;97926.91;;;17.74;41.06
22743;BME280;11538;48.884;8.696;2023-04-15T11:38:58;97934.13;;;17.59;42.02
22743;BME280;11538;48.884;8.696;2023-04-15T11:41:25;97930.88;;;17.77;40.99
22743;BME280;11538;48.884;8.696;2023-04-15T11:43:52;97927.13;;;18.80;38.98
22743;BME280;11538;48.884;8.696;2023-04-15T11:46:20;97928.88;;;19.37;38.14
22743;BME280;11538;48.884;8.696;2023-04-15T11:48:48;97931.56;;;18.92;38.92
22743;BME280;11538;48.884;8.696;2023-04-15T11:51:15;97938.72;;;18.97;37.58
22743;BME280;11538;48.884;8.696;2023-04-15T11:53:50;97941.13;;;19.92;35.21
22743;BME280;11538;48.884;8.696;2023-04-15T11:56:21;97941.22;;;20.10;33.54
22743;BME280;11538;48.884;8.696;2023-04-15T11:58:56;97943.13;;;20.80;33.00
22743;BME280;11538;48.884;8.696;2023-04-15T12:01:35;97950.25;;;20.92;32.18
22743;BME280;11538;48.884;8.696;2023-04-15T12:04:31;97947.69;;;20.47;32.28
22743;BME280;11538;48.884;8.696;2023-04-15T12:07:04;97948.47;;;20.48;32.16
22743;BME280;11538;48.884;8.696;2023-04-15T12:09:37;97957.41;;;21.26;32.38
22743;BME280;11538;48.884;8.696;2023-04-15T12:12:04;97960.38;;;20.66;32.90
22743;BME280;11538;48.884;8.696;2023-04-15T12:14:33;97968.72;;;19.58;34.13
22743;BME280;11538;48.884;8.696;2023-04-15T12:17:05;97971.78;;;19.04;35.25
22743;BME280;11538;48.884;8.696;2023-04-15T12:19:41;97958.09;;;20.05;34.29
22743;BME280;11538;48.884;8.696;2023-04-15T12:22:11;97966.31;;;19.94;34.50
22743;BME280;11538;48.884;8.696;2023-04-15T12:24:40;97966.72;;;20.00;34.47
22743;BME280;11538;48.884;8.696;2023-04-15T12:27:14;97978.75;;;20.37;33.68
22743;BME280;11538;48.884;8.696;2023-04-15T12:29:42;97981.44;;;21.22;32.27
22743;BME280;11538;48.884;8.696;2023-04-15T12:32:14;97993.72;;;21.82;30.81
22743;BME280;11538;48.884;8.696;2023-04-15T12:34:52;97991.34;;;22.10;30.08
22743;BME280;11538;48.884;8.696;2023-04-15T12:37:20;97986.63;;;21.99;29.49
22743;BME280;11538;48.884;8.696;2023-04-15T12:39:48;97990.97;;;22.04;29.86
22743;BME280;11538;48.884;8.696;2023-04-15T12:42:16;97988.16;;;21.35;30.22
22743;BME280;11538;48.884;8.696;2023-04-15T12:44:44;97998.19;;;20.73;30.94
22743;BME280;11538;48.884;8.696;2023-04-15T12:47:12;97999.69;;;20.56;30.74
22743;BME280;11538;48.884;8.696;2023-04-15T12:49:39;97996.72;;;20.94;29.98
22743;BME280;11538;48.884;8.696;2023-04-15T12:52:07;98007.47;;;19.83;31.74
22743;BME280;11538;48.884;8.696;2023-04-15T12:54:34;98008.38;;;18.81;32.66
22743;BME280;11538;48.884;8.696;2023-04-15T12:57:03;98006.78;;;18.19;32.32
22743;BME280;11538;48.884;8.696;2023-04-15T12:59:33;98010.22;;;18.12;32.43
22743;BME280;11538;48.884;8.696;2023-04-15T13:02:00;98017.00;;;18.22;32.09
22743;BME280;11538;48.884;8.696;2023-04-15T13:04:28;98008.75;;;17.95;32.74
22743;BME280;11538;48.884;8.696;2023-04-15T13:07:00;98009.84;;;17.91;32.77
22743;BME280;11538;48.884;8.696;2023-04-15T13:09:27;98015.00;;;18.19;32.27
22743;BME280;11538;48.884;8.696;2023-04-15T13:11:54;98013.22;;;18.04;31.70
22743;BME280;11538;48.884;8.696;2023-04-15T13:14:23;98019.69;;;17.92;31.57
22743;BME280;11538;48.884;8.696;2023-04-15T13:16:49;98007.38;;;17.59;31.57